Time;durP1;ratioP1;P1;durP2;ratioP2;P2;SDS_P1;SDS_P2;PMS_P1;PMS_P2;Temp;Humidity;BMP_temperature;BMP_pressure;BME280_temperature;BME280_humidity;BME280_pressure;Samples;Min_cycle;Max_cycle;Signal;HPM_P1;HPM_P2
2023/12/22 00:02:28;;;;;;;;;;;;;;;;;;4995403;28;58260;-77
2023/12/22 00:04:53;;;;;;;;;;;;;;;;;;4994757;28;60454;-75
2023/12/22 00:07:20;;;;;;;;;;;;;;;;;;4994185;28;59384;-78
2023/12/22 00:09:45;;;;;;;;;;;;;;;;;;4995502;28;58885;-76
2023/12/22 00:12:10;;;;;;;;;;;;;;;;;;4994837;28;58873;-72
2023/12/22 00:14:37;;;;;;;;;;;;;;;;;;4995120;28;59123;-73
2023/12/22 00:17:02;;;;;;;;;;;;;;;;;;4995433;28;59360;-71
2023/12/22 00:19:27;;;;;;;;;;;;;;;;;;4994279;28;59428;-70
2023/12/22 00:21:52;;;;;;;;;;;;;;;;;;4995313;28;58785;-71
2023/12/22 00:24:17;;;;;;;;;;;;;;;;;;4995017;28;60183;-70
2023/12/22 00:26:42;;;;;;;;;;;;;;;;;;4995026;28;59179;-72
2023/12/22 00:29:07;;;;;;;;;;;;;;;;;;4995183;28;58913;-73
2023/12/22 00:31:32;;;;;;;;;;;;;;;;;;4994244;28;59361;-74
2023/12/22 00:33:57;;;;;;;;;;;;;;;;;;4994675;28;58825;-72
2023/12/22 00:36:24;;;;;;;;;;;;;;;;;;4994795;28;60340;-72
2023/12/22 00:38:49;;;;;;;;;;;;;;;;;;4994594;28;59700;-72
2023/12/22 00:41:14;;;;;;;;;;;;;;;;;;4994474;28;58910;-74
2023/12/22 00:43:39;;;;;;;;;;;;;;;;;;4994444;28;60192;-73
2023/12/22 00:46:05;;;;;;;;;;;;;;;;;;4993728;28;59902;-73
2023/12/22 00:48:30;;;;;;;;;;;;;;;;;;4994409;28;58938;-72
2023/12/22 00:50:55;;;;;;;;;;;;;;;;;;4995240;28;60609;-71
2023/12/22 00:53:20;;;;;;;;;;;;;;;;;;4994258;28;58954;-74
2023/12/22 00:55:45;;;;;;;;;;;;;;;;;;4994546;28;59154;-71
2023/12/22 00:58:11;;;;;;;;;;;;;;;;;;4993501;28;59230;-72
2023/12/22 01:00:36;;;;;;;;;;;;;;;;;;4994062;28;58429;-73
2023/12/22 01:03:01;;;;;;;;;;;;;;;;;;4995031;28;60246;-71
2023/12/22 01:05:26;;;;;;;;;;;;;;;;;;4993990;28;60141;-72
2023/12/22 01:07:51;;;;;;;;;;;;;;;;;;4994676;28;59155;-74
2023/12/22 01:10:16;;;;;;;;;;;;;;;;;;4994514;28;60250;-73
2023/12/22 01:12:41;;;;;;;;;;;;;;;;;;4997443;28;59496;-73
2023/12/22 01:15:06;;;;;;;;;;;;;;;;;;4998491;28;59763;-74
2023/12/22 01:17:32;;;;;;;;;;;;;;;;;;4997620;28;59550;-73
2023/12/22 01:19:57;;;;;;;;;;;;;;;;;;5013254;28;59165;-73
2023/12/22 01:22:22;;;;;;;;;;;;;;;;;;4997829;28;61204;-73
2023/12/22 01:24:47;;;;;;;;;;;;;;;;;;4996934;28;59482;-70
2023/12/22 01:27:12;;;;;;;;;;;;;;;;;;4998343;28;58872;-71
2023/12/22 01:29:38;;;;;;;;;;;;;;;;;;4997865;28;60354;-73
2023/12/22 01:32:03;;;;;;;;;;;;;;;;;;4996742;28;58924;-73
2023/12/22 01:34:28;;;;;;;;;;;;;;;;;;5013295;28;59229;-74
2023/12/22 01:36:53;;;;;;;;;;;;;;;;;;4997046;28;59148;-72
2023/12/22 01:39:19;;;;;;;;;;;;;;;;;;4997275;28;58795;-74
2023/12/22 01:41:44;;;;;;;;;;;;;;;;;;4998017;28;60500;-73
2023/12/22 01:44:09;;;;;;;;;;;;;;;;;;4996716;28;58808;-74
2023/12/22 01:46:34;;;;;;;;;;;;;;;;;;4997296;28;58814;-71
2023/12/22 01:49:01;;;;;;;;;;;;;;;;;;4997157;28;60515;-71
2023/12/22 01:51:26;;;;;;;;;;;;;;;;;;4996150;28;59714;-71
2023/12/22 01:53:52;;;;;;;;;;;;;;;;;;4997951;28;58919;-71
2023/12/22 01:56:17;;;;;;;;;;;;;;;;;;4997242;28;60374;-72
2023/12/22 01:58:42;;;;;;;;;;;;;;;;;;5012522;28;58884;-71
2023/12/22 02:01:07;;;;;;;;;;;;;;;;;;4997087;28;59860;-72
2023/12/22 02:03:32;;;;;;;;;;;;;;;;;;4996463;28;59351;-72
2023/12/22 02:05:58;;;;;;;;;;;;;;;;;;4997725;28;58809;-72
2023/12/22 02:08:23;;;;;;;;;;;;;;;;;;4996973;28;61050;-73
2023/12/22 02:10:48;;;;;;;;;;;;;;;;;;4996277;28;59164;-71
2023/12/22 02:13:13;;;;;;;;;;;;;;;;;;4996898;28;58810;-72
2023/12/22 02:15:38;;;;;;;;;;;;;;;;;;4996622;28;60301;-72
2023/12/22 02:18:03;;;;;;;;;;;;;;;;;;4997641;28;58981;-73
2023/12/22 02:20:28;;;;;;;;;;;;;;;;;;5011906;28;62347;-72
2023/12/22 02:22:53;;;;;;;;;;;;;;;;;;4994753;28;59860;-73
2023/12/22 02:25:18;;;;;;;;;;;;;;;;;;4996522;28;58971;-71
2023/12/22 02:27:43;;;;;;;;;;;;;;;;;;4996943;28;59004;-72
2023/12/22 02:30:09;;;;;;;;;;;;;;;;;;4996641;28;58798;-72
2023/12/22 02:32:34;;;;;;;;;;;;;;;;;;4996615;28;58900;-74
2023/12/22 02:34:59;;;;;;;;;;;;;;;;;;4996348;28;60320;-73
2023/12/22 02:37:24;;;;;;;;;;;;;;;;;;4996719;28;59212;-72
2023/12/22 02:39:49;;;;;;;;;;;;;;;;;;4996544;28;60264;-71
2023/12/22 02:42:14;;;;;;;;;;;;;;;;;;4995630;28;59808;-71
2023/12/22 02:44:39;;;;;;;;;;;;;;;;;;4997459;28;58928;-72
2023/12/22 02:47:04;;;;;;;;;;;;;;;;;;4996248;28;60243;-72
2023/12/22 02:49:29;;;;;;;;;;;;;;;;;;4995471;28;59207;-73
2023/12/22 02:51:54;;;;;;;;;;;;;;;;;;4996118;28;58775;-73
2023/12/22 02:54:19;;;;;;;;;;;;;;;;;;4996083;28;60310;-71
2023/12/22 02:56:44;;;;;;;;;;;;;;;;;;4996201;28;59425;-74
2023/12/22 02:59:10;;;;;;;;;;;;;;;;;;4996624;28;58909;-74
2023/12/22 03:01:36;;;;;;;;;;;;;;;;;;4995144;28;59239;-74
2023/12/22 03:04:01;;;;;;;;;;;;;;;;;;4995972;28;58895;-73
2023/12/22 03:06:26;;;;;;;;;;;;;;;;;;4996141;28;59358;-73
2023/12/22 03:08:51;;;;;;;;;;;;;;;;;;4996017;28;59464;-73
2023/12/22 03:11:16;;;;;;;;;;;;;;;;;;4995666;28;59459;-74
2023/12/22 03:13:41;;;;;;;;;;;;;;;;;;4995941;28;60921;-75
2023/12/22 03:16:06;;;;;;;;;;;;;;;;;;4995288;28;59403;-75
2023/12/22 03:18:31;;;;;;;;;;;;;;;;;;4995959;28;58842;-72
2023/12/22 03:20:56;;;;;;;;;;;;;;;;;;4996761;28;60115;-73
2023/12/22 03:23:21;;;;;;;;;;;;;;;;;;4995978;28;58914;-74
2023/12/22 03:25:47;;;;;;;;;;;;;;;;;;4995915;28;60274;-73
2023/12/22 03:28:12;;;;;;;;;;;;;;;;;;4994922;28;60134;-74
2023/12/22 03:30:38;;;;;;;;;;;;;;;;;;4995610;28;58739;-76
2023/12/22 03:33:03;;;;;;;;;;;;;;;;;;4996270;28;60959;-72
2023/12/22 03:35:28;;;;;;;;;;;;;;;;;;4994701;28;59281;-73
2023/12/22 03:37:53;;;;;;;;;;;;;;;;;;4995475;28;58873;-74
2023/12/22 03:40:18;;;;;;;;;;;;;;;;;;4995566;28;60218;-74
2023/12/22 03:42:43;;;;;;;;;;;;;;;;;;4995770;28;59274;-74
2023/12/22 03:45:08;;;;;;;;;;;;;;;;;;4996214;28;60293;-73
2023/12/22 03:47:33;;;;;;;;;;;;;;;;;;4994979;28;58898;-73
2023/12/22 03:49:58;;;;;;;;;;;;;;;;;;4995389;28;59247;-72
2023/12/22 03:52:23;;;;;;;;;;;;;;;;;;4995358;28;60532;-72
2023/12/22 03:54:48;;;;;;;;;;;;;;;;;;5009661;28;59049;-73
2023/12/22 03:57:13;;;;;;;;;;;;;;;;;;4995652;28;58982;-73
2023/12/22 03:59:39;;;;;;;;;;;;;;;;;;4995871;28;60321;-73
2023/12/22 04:02:04;;;;;;;;;;;;;;;;;;4994496;28;59189;-74
2023/12/22 04:04:29;;;;;;;;;;;;;;;;;;4995956;28;59251;-73
2023/12/22 04:06:54;;;;;;;;;;;;;;;;;;4994396;28;59443;-73
2023/12/22 04:09:19;;;;;;;;;;;;;;;;;;4995383;28;59001;-73
2023/12/22 04:11:44;;;;;;;;;;;;;;;;;;4995659;28;60293;-74
2023/12/22 04:14:09;;;;;;;;;;;;;;;;;;4994090;28;58927;-73
2023/12/22 04:16:34;;;;;;;;;;;;;;;;;;4994925;28;59169;-73
2023/12/22 04:18:59;;;;;;;;;;;;;;;;;;4995060;28;59665;-74
2023/12/22 04:21:24;;;;;;;;;;;;;;;;;;4994281;28;59207;-73
2023/12/22 04:23:50;;;;;;;;;;;;;;;;;;4995656;28;58901;-73
2023/12/22 04:26:15;;;;;;;;;;;;;;;;;;4994792;28;60374;-72
2023/12/22 04:28:40;;;;;;;;;;;;;;;;;;4994618;28;59211;-73
2023/12/22 04:31:06;;;;;;;;;;;;;;;;;;4994571;28;60240;-73
2023/12/22 04:33:31;;;;;;;;;;;;;;;;;;4993658;28;60869;-72
2023/12/22 04:35:56;;;;;;;;;;;;;;;;;;4995556;28;58887;-72
2023/12/22 04:38:21;;;;;;;;;;;;;;;;;;4994835;28;61046;-74
2023/12/22 04:40:46;;;;;;;;;;;;;;;;;;4994090;28;59504;-73
2023/12/22 04:43:11;;;;;;;;;;;;;;;;;;4994375;28;58859;-75
2023/12/22 04:45:36;;;;;;;;;;;;;;;;;;4994161;28;59275;-73
2023/12/22 04:48:01;;;;;;;;;;;;;;;;;;4995213;28;58891;-74
2023/12/22 04:50:27;;;;;;;;;;;;;;;;;;4994721;28;60103;-73
2023/12/22 04:52:52;;;;;;;;;;;;;;;;;;4993981;28;59466;-72
2023/12/22 04:55:17;;;;;;;;;;;;;;;;;;5009801;28;58919;-72
2023/12/22 04:57:42;;;;;;;;;;;;;;;;;;4994613;28;61881;-71
2023/12/22 05:00:08;;;;;;;;;;;;;;;;;;4994381;28;58956;-72
2023/12/22 05:02:33;;;;;;;;;;;;;;;;;;4994453;28;58905;-71
2023/12/22 05:04:58;;;;;;;;;;;;;;;;;;4994313;28;59345;-72
2023/12/22 05:07:23;;;;;;;;;;;;;;;;;;4994910;28;59357;-72
2023/12/22 05:09:48;;;;;;;;;;;;;;;;;;4994315;28;59354;-74
2023/12/22 05:12:13;;;;;;;;;;;;;;;;;;4993620;28;59246;-73
2023/12/22 05:14:38;;;;;;;;;;;;;;;;;;4994966;28;58831;-74
2023/12/22 05:17:03;;;;;;;;;;;;;;;;;;4994320;28;60281;-72
2023/12/22 05:19:28;;;;;;;;;;;;;;;;;;4993559;28;59188;-73
2023/12/22 05:21:55;;;;;;;;;;;;;;;;;;4994066;28;58770;-73
2023/12/22 05:24:20;;;;;;;;;;;;;;;;;;4994089;28;60943;-72
2023/12/22 05:26:46;;;;;;;;;;;;;;;;;;4994113;28;60048;-72
2023/12/22 05:29:12;;;;;;;;;;;;;;;;;;4994566;28;58862;-73
2023/12/22 05:31:37;;;;;;;;;;;;;;;;;;4993198;28;58943;-72
2023/12/22 05:34:03;;;;;;;;;;;;;;;;;;4994042;28;59146;-72
2023/12/22 05:36:28;;;;;;;;;;;;;;;;;;4993593;28;61107;-75
2023/12/22 05:38:53;;;;;;;;;;;;;;;;;;4993653;28;58892;-79
2023/12/22 05:41:19;;;;;;;;;;;;;;;;;;4994039;28;59179;-75
2023/12/22 05:43:44;;;;;;;;;;;;;;;;;;4993572;28;61025;-74
2023/12/22 05:46:09;;;;;;;;;;;;;;;;;;4993228;28;58516;-73
2023/12/22 05:48:35;;;;;;;;;;;;;;;;;;4993470;28;58848;-74
2023/12/22 05:51:02;;;;;;;;;;;;;;;;;;4994122;28;59747;-74
2023/12/22 05:53:27;;;;;;;;;;;;;;;;;;4993534;28;59207;-74
2023/12/22 05:55:52;;;;;;;;;;;;;;;;;;4993741;28;59278;-74
2023/12/22 05:58:17;;;;;;;;;;;;;;;;;;4995285;28;59298;-75
2023/12/22 06:00:42;;;;;;;;;;;;;;;;;;4997242;28;59460;-74
2023/12/22 06:03:07;;;;;;;;;;;;;;;;;;4997393;28;61129;-73
2023/12/22 06:05:32;;;;;;;;;;;;;;;;;;4996353;28;58853;-74
2023/12/22 06:07:57;;;;;;;;;;;;;;;;;;4997034;28;59291;-73
2023/12/22 06:10:23;;;;;;;;;;;;;;;;;;4997187;28;59153;-74
2023/12/22 06:12:48;;;;;;;;;;;;;;;;;;4996912;28;59890;-73
2023/12/22 06:15:13;;;;;;;;;;;;;;;;;;4997230;28;60249;-73
2023/12/22 06:17:38;;;;;;;;;;;;;;;;;;4997022;28;59209;-73
2023/12/22 06:20:03;;;;;;;;;;;;;;;;;;4997113;28;59187;-73
2023/12/22 06:22:29;;;;;;;;;;;;;;;;;;4996607;28;60567;-73
2023/12/22 06:24:54;;;;;;;;;;;;;;;;;;4995763;28;59708;-74
2023/12/22 06:27:19;;;;;;;;;;;;;;;;;;4996623;28;59007;-75
2023/12/22 06:29:44;;;;;;;;;;;;;;;;;;4996865;28;60175;-73
2023/12/22 06:32:09;;;;;;;;;;;;;;;;;;4995766;28;59045;-75
2023/12/22 06:34:34;;;;;;;;;;;;;;;;;;4997362;28;58863;-73
2023/12/22 06:36:59;;;;;;;;;;;;;;;;;;4996114;28;59131;-75
2023/12/22 06:39:24;;;;;;;;;;;;;;;;;;4996873;28;59215;-73
2023/12/22 06:41:50;;;;;;;;;;;;;;;;;;4997006;28;60142;-73
2023/12/22 06:44:15;;;;;;;;;;;;;;;;;;4995460;28;58730;-73
2023/12/22 06:46:40;;;;;;;;;;;;;;;;;;4996053;28;59058;-77
2023/12/22 06:49:05;;;;;;;;;;;;;;;;;;4995866;28;59380;-73
2023/12/22 06:51:30;;;;;;;;;;;;;;;;;;4995325;28;58885;-76
2023/12/22 06:53:55;;;;;;;;;;;;;;;;;;4997892;28;58821;-73
2023/12/22 06:56:20;;;;;;;;;;;;;;;;;;4995249;28;59124;-73
2023/12/22 06:58:48;;;;;;;;;;;;;;;;;;4995861;28;58939;-73
2023/12/22 07:01:13;;;;;;;;;;;;;;;;;;5010947;28;61532;-73
2023/12/22 07:03:38;;;;;;;;;;;;;;;;;;4995398;28;58871;-73
2023/12/22 07:06:04;;;;;;;;;;;;;;;;;;4996942;28;58859;-74
2023/12/22 07:08:29;;;;;;;;;;;;;;;;;;4995444;28;59506;-74
2023/12/22 07:10:54;;;;;;;;;;;;;;;;;;4994708;28;58782;-74
2023/12/22 07:13:19;;;;;;;;;;;;;;;;;;4995755;28;58544;-74
2023/12/22 07:15:44;;;;;;;;;;;;;;;;;;4995686;28;60128;-73
2023/12/22 07:18:09;;;;;;;;;;;;;;;;;;4996532;28;58993;-74
2023/12/22 07:20:34;;;;;;;;;;;;;;;;;;4995919;28;59626;-74
2023/12/22 07:22:59;;;;;;;;;;;;;;;;;;4994967;28;58987;-73
2023/12/22 07:25:24;;;;;;;;;;;;;;;;;;4995747;28;58917;-73
2023/12/22 07:27:49;;;;;;;;;;;;;;;;;;5010734;28;60205;-73
2023/12/22 07:30:15;;;;;;;;;;;;;;;;;;4994739;28;59438;-73
2023/12/22 07:32:41;;;;;;;;;;;;;;;;;;4996203;28;58985;-73
2023/12/22 07:35:07;;;;;;;;;;;;;;;;;;4995140;28;60245;-72
2023/12/22 07:37:32;;;;;;;;;;;;;;;;;;4995777;28;58830;-72
2023/12/22 07:39:57;;;;;;;;;;;;;;;;;;4995515;28;60259;-75
2023/12/22 07:42:23;;;;;;;;;;;;;;;;;;4994626;28;59420;-76
2023/12/22 07:44:48;;;;;;;;;;;;;;;;;;4996045;28;58782;-74
2023/12/22 07:47:13;;;;;;;;;;;;;;;;;;4995473;28;59308;-75
2023/12/22 07:49:38;;;;;;;;;;;;;;;;;;4994428;28;59378;-75
2023/12/22 07:52:03;;;;;;;;;;;;;;;;;;4995051;28;59116;-74
2023/12/22 07:54:28;;;;;;;;;;;;;;;;;;4995086;28;60158;-74
2023/12/22 07:56:53;;;;;;;;;;;;;;;;;;4994883;28;59016;-75
2023/12/22 07:59:18;;;;;;;;;;;;;;;;;;4995829;28;58469;-76
2023/12/22 08:01:43;;;;;;;;;;;;;;;;;;4994506;28;58876;-75
2023/12/22 08:04:08;;;;;;;;;;;;;;;;;;4995262;28;58910;-74
2023/12/22 08:06:33;;;;;;;;;;;;;;;;;;4995114;28;60157;-74
2023/12/22 08:08:59;;;;;;;;;;;;;;;;;;4995044;28;59656;-75
2023/12/22 08:11:25;;;;;;;;;;;;;;;;;;5010075;28;58867;-75
2023/12/22 08:13:50;;;;;;;;;;;;;;;;;;4994596;28;60183;-75
2023/12/22 08:16:15;;;;;;;;;;;;;;;;;;4994180;28;59557;-75
2023/12/22 08:18:40;;;;;;;;;;;;;;;;;;4994779;28;59046;-75
2023/12/22 08:21:06;;;;;;;;;;;;;;;;;;4995536;28;59494;-75
2023/12/22 08:23:31;;;;;;;;;;;;;;;;;;4994691;28;59007;-75
2023/12/22 08:25:57;;;;;;;;;;;;;;;;;;4994652;28;60262;-75
2023/12/22 08:28:22;;;;;;;;;;;;;;;;;;4993531;28;59210;-74
2023/12/22 08:30:47;;;;;;;;;;;;;;;;;;4995236;28;59183;-75
2023/12/22 08:33:13;;;;;;;;;;;;;;;;;;4994915;28;60225;-74
2023/12/22 08:35:38;;;;;;;;;;;;;;;;;;4994424;28;59285;-74
2023/12/22 08:38:03;;;;;;;;;;;;;;;;;;4994835;28;59224;-75
2023/12/22 08:40:28;;;;;;;;;;;;;;;;;;4994575;28;59516;-74
2023/12/22 08:42:59;;;;;;;;;;;;;;;;;;4994481;28;58242;-74
2023/12/22 08:45:26;;;;;;;;;;;;;;;;;;4994585;28;60335;-74
2023/12/22 08:47:51;;;;;;;;;;;;;;;;;;4994514;28;59372;-74
2023/12/22 08:50:16;;;;;;;;;;;;;;;;;;4994159;28;58926;-76
2023/12/22 08:52:41;;;;;;;;;;;;;;;;;;4994400;28;59448;-76
2023/12/22 08:55:06;;;;;;;;;;;;;;;;;;4993641;28;59841;-73
2023/12/22 08:57:31;;;;;;;;;;;;;;;;;;4994344;28;58878;-76
2023/12/22 08:59:57;;;;;;;;;;;;;;;;;;4994976;28;60754;-74
2023/12/22 09:02:22;;;;;;;;;;;;;;;;;;4994534;28;59178;-75
2023/12/22 09:04:47;;;;;;;;;;;;;;;;;;4994289;28;60141;-75
2023/12/22 09:07:12;;;;;;;;;;;;;;;;;;4993589;28;59049;-75
2023/12/22 09:09:37;;;;;;;;;;;;;;;;;;4994668;28;58878;-75
2023/12/22 09:12:02;;;;;;;;;;;;;;;;;;4994712;28;60355;-75
2023/12/22 09:14:27;;;;;;;;;;;;;;;;;;4993410;28;59053;-75
2023/12/22 09:16:55;;;;;;;;;;;;;;;;;;4994231;28;58945;-75
2023/12/22 09:19:21;;;;;;;;;;;;;;;;;;4994003;28;59343;-75
2023/12/22 09:21:46;;;;;;;;;;;;;;;;;;4993293;28;59320;-75
2023/12/22 09:24:12;;;;;;;;;;;;;;;;;;4995112;28;58961;-74
2023/12/22 09:26:37;;;;;;;;;;;;;;;;;;4993951;28;59354;-75
2023/12/22 09:29:02;;;;;;;;;;;;;;;;;;4993797;28;58467;-73
2023/12/22 09:31:27;;;;;;;;;;;;;;;;;;4994174;28;60284;-74
2023/12/22 09:33:52;;;;;;;;;;;;;;;;;;4996547;28;58905;-75
2023/12/22 09:36:17;;;;;;;;;;;;;;;;;;4997888;28;58857;-74
2023/12/22 09:38:43;;;;;;;;;;;;;;;;;;4998067;28;60173;-74
2023/12/22 09:41:10;;;;;;;;;;;;;;;;;;4996647;28;59853;-73
2023/12/22 09:43:36;;;;;;;;;;;;;;;;;;4997105;28;59218;-74
2023/12/22 09:46:01;;;;;;;;;;;;;;;;;;4997225;28;60118;-75
2023/12/22 09:48:27;;;;;;;;;;;;;;;;;;4997441;28;59330;-73
2023/12/22 09:50:52;;;;;;;;;;;;;;;;;;4997804;28;60473;-75
2023/12/22 09:53:17;;;;;;;;;;;;;;;;;;4996503;28;58927;-76
2023/12/22 09:55:42;;;;;;;;;;;;;;;;;;4997081;28;58989;-74
2023/12/22 09:58:07;;;;;;;;;;;;;;;;;;4997238;28;60972;-75
2023/12/22 10:00:32;;;;;;;;;;;;;;;;;;4996306;28;59188;-75
2023/12/22 10:02:57;;;;;;;;;;;;;;;;;;4997979;28;58868;-75
2023/12/22 10:05:22;;;;;;;;;;;;;;;;;;4997441;28;59315;-75
2023/12/22 10:07:47;;;;;;;;;;;;;;;;;;4997187;28;58821;-75
2023/12/22 10:10:12;;;;;;;;;;;;;;;;;;4996950;28;60204;-75
2023/12/22 10:12:38;;;;;;;;;;;;;;;;;;4996090;28;59437;-74
2023/12/22 10:15:03;;;;;;;;;;;;;;;;;;4997480;28;58982;-75
2023/12/22 10:17:28;;;;;;;;;;;;;;;;;;4996781;28;60165;-74
2023/12/22 10:19:53;;;;;;;;;;;;;;;;;;4996108;28;59996;-74
2023/12/22 10:22:18;;;;;;;;;;;;;;;;;;4996615;28;59175;-74
2023/12/22 10:24:43;;;;;;;;;;;;;;;;;;4996662;28;59356;-75
2023/12/22 10:27:08;;;;;;;;;;;;;;;;;;4996556;28;59318;-74
2023/12/22 10:29:34;;;;;;;;;;;;;;;;;;4996812;28;58461;-75
2023/12/22 10:31:59;;;;;;;;;;;;;;;;;;4995844;28;59395;-74
2023/12/22 10:34:24;;;;;;;;;;;;;;;;;;4996670;28;58822;-74
2023/12/22 10:36:49;;;;;;;;;;;;;;;;;;4996327;28;60242;-75
2023/12/22 10:39:14;;;;;;;;;;;;;;;;;;4995805;28;59975;-75
2023/12/22 10:41:39;;;;;;;;;;;;;;;;;;4996916;28;58947;-74
2023/12/22 10:44:04;;;;;;;;;;;;;;;;;;4995327;28;59246;-75
2023/12/22 10:46:29;;;;;;;;;;;;;;;;;;4995594;28;59483;-73
2023/12/22 10:48:54;;;;;;;;;;;;;;;;;;4997128;28;59133;-75
2023/12/22 10:51:19;;;;;;;;;;;;;;;;;;4995394;28;58800;-76
2023/12/22 10:53:44;;;;;;;;;;;;;;;;;;4996913;28;59024;-74
2023/12/22 10:56:09;;;;;;;;;;;;;;;;;;4996052;28;61099;-76
2023/12/22 10:58:35;;;;;;;;;;;;;;;;;;4995360;28;59327;-75
2023/12/22 11:01:00;;;;;;;;;;;;;;;;;;4995885;28;59212;-75
2023/12/22 11:03:26;;;;;;;;;;;;;;;;;;4995849;28;60296;-76
2023/12/22 11:05:51;;;;;;;;;;;;;;;;;;4996033;28;59211;-75
2023/12/22 11:08:16;;;;;;;;;;;;;;;;;;4996333;28;58839;-75
2023/12/22 11:10:41;;;;;;;;;;;;;;;;;;5011238;28;61126;-75
2023/12/22 11:13:06;;;;;;;;;;;;;;;;;;4996220;28;58789;-75
2023/12/22 11:15:31;;;;;;;;;;;;;;;;;;5010442;28;61914;-75
2023/12/22 11:17:57;;;;;;;;;;;;;;;;;;4995786;28;59070;-74
2023/12/22 11:20:23;;;;;;;;;;;;;;;;;;4995904;28;58920;-74
2023/12/22 11:22:50;;;;;;;;;;;;;;;;;;4995608;28;59551;-75
2023/12/22 11:25:15;;;;;;;;;;;;;;;;;;4994809;28;59750;-74
2023/12/22 11:27:40;;;;;;;;;;;;;;;;;;4995584;28;58854;-75
2023/12/22 11:30:08;;;;;;;;;;;;;;;;;;4996014;28;60263;-75
2023/12/22 11:32:33;;;;;;;;;;;;;;;;;;4995496;28;59223;-75
2023/12/22 11:34:58;;;;;;;;;;;;;;;;;;4995781;28;59287;-73
2023/12/22 11:37:23;;;;;;;;;;;;;;;;;;4994720;28;59877;-75
2023/12/22 11:39:49;;;;;;;;;;;;;;;;;;4995473;28;59075;-73
2023/12/22 11:42:14;;;;;;;;;;;;;;;;;;4995483;28;60062;-76
2023/12/22 11:44:40;;;;;;;;;;;;;;;;;;4995372;28;58788;-76
2023/12/22 11:47:05;;;;;;;;;;;;;;;;;;4995102;28;58473;-73
2023/12/22 11:49:30;;;;;;;;;;;;;;;;;;4995539;28;59387;-74
2023/12/22 11:51:55;;;;;;;;;;;;;;;;;;4994419;28;59109;-74
2023/12/22 11:54:20;;;;;;;;;;;;;;;;;;4995987;28;58812;-74
2023/12/22 11:56:45;;;;;;;;;;;;;;;;;;4994871;28;58782;-75
2023/12/22 11:59:11;;;;;;;;;;;;;;;;;;4995210;28;59015;-77
2023/12/22 12:01:36;;;;;;;;;;;;;;;;;;4994861;28;60654;-76
2023/12/22 12:04:01;;;;;;;;;;;;;;;;;;4994305;28;58935;-76
2023/12/22 12:06:27;;;;;;;;;;;;;;;;;;4995426;28;58869;-76
2023/12/22 12:08:53;;;;;;;;;;;;;;;;;;4996011;28;60447;-74
2023/12/22 12:11:18;;;;;;;;;;;;;;;;;;4994403;28;59915;-76
2023/12/22 12:13:44;;;;;;;;;;;;;;;;;;4995052;28;58696;-76
2023/12/22 12:16:10;;;;;;;;;;;;;;;;;;4994736;28;61044;-74
2023/12/22 12:18:35;;;;;;;;;;;;;;;;;;4995141;28;58811;-75
2023/12/22 12:21:00;;;;;;;;;;;;;;;;;;4995585;28;60364;-75
2023/12/22 12:23:26;;;;;;;;;;;;;;;;;;4994040;28;59457;-75
2023/12/22 12:25:51;;;;;;;;;;;;;;;;;;4994564;28;59060;-76
2023/12/22 12:28:19;;;;;;;;;;;;;;;;;;4994231;28;60633;-75
2023/12/22 12:30:45;;;;;;;;;;;;;;;;;;4994096;28;58944;-76
2023/12/22 12:33:10;;;;;;;;;;;;;;;;;;4995415;28;58910;-77
2023/12/22 12:35:35;;;;;;;;;;;;;;;;;;4994787;28;60569;-75
2023/12/22 12:38:00;;;;;;;;;;;;;;;;;;4994740;28;59037;-76
2023/12/22 12:40:25;;;;;;;;;;;;;;;;;;4994443;28;60313;-75
2023/12/22 12:42:50;;;;;;;;;;;;;;;;;;4993767;28;59856;-75
2023/12/22 12:45:15;;;;;;;;;;;;;;;;;;4994608;28;58802;-73
2023/12/22 12:47:41;;;;;;;;;;;;;;;;;;4995182;28;60631;-73
2023/12/22 12:50:06;;;;;;;;;;;;;;;;;;4993625;28;59499;-74
2023/12/22 12:52:31;;;;;;;;;;;;;;;;;;4994680;28;58544;-74
2023/12/22 12:54:58;;;;;;;;;;;;;;;;;;4994002;28;60109;-72
2023/12/22 12:57:23;;;;;;;;;;;;;;;;;;4994370;28;59069;-73
2023/12/22 12:59:48;;;;;;;;;;;;;;;;;;4995146;28;60323;-75
2023/12/22 13:02:13;;;;;;;;;;;;;;;;;;5008253;28;60865;-73
2023/12/22 13:04:38;;;;;;;;;;;;;;;;;;4994393;28;58766;-75
2023/12/22 13:07:03;;;;;;;;;;;;;;;;;;4995066;28;60209;-76
2023/12/22 13:09:28;;;;;;;;;;;;;;;;;;4997105;28;59268;-75
2023/12/22 13:11:53;;;;;;;;;;;;;;;;;;4998379;28;58885;-75
2023/12/22 13:14:19;;;;;;;;;;;;;;;;;;4998075;28;59152;-75
2023/12/22 13:16:44;;;;;;;;;;;;;;;;;;4996986;28;59570;-75
2023/12/22 13:19:09;;;;;;;;;;;;;;;;;;4998273;28;58885;-75
2023/12/22 13:21:34;;;;;;;;;;;;;;;;;;4996804;28;59719;-76
2023/12/22 13:23:59;;;;;;;;;;;;;;;;;;4998233;28;58971;-75
2023/12/22 13:26:24;;;;;;;;;;;;;;;;;;4997411;28;60341;-77
2023/12/22 13:28:49;;;;;;;;;;;;;;;;;;4996724;28;59231;-74
2023/12/22 13:31:15;;;;;;;;;;;;;;;;;;4997424;28;58850;-74
2023/12/22 13:33:40;;;;;;;;;;;;;;;;;;4997309;28;61042;-75
2023/12/22 13:36:05;;;;;;;;;;;;;;;;;;4997366;28;59451;-74
2023/12/22 13:38:30;;;;;;;;;;;;;;;;;;4997233;28;58889;-73
2023/12/22 13:40:55;;;;;;;;;;;;;;;;;;5012305;28;60357;-74
2023/12/22 13:43:21;;;;;;;;;;;;;;;;;;4996995;28;59243;-75
2023/12/22 13:45:46;;;;;;;;;;;;;;;;;;4997015;28;61011;-74
2023/12/22 13:48:11;;;;;;;;;;;;;;;;;;4997349;28;59373;-75
2023/12/22 13:50:36;;;;;;;;;;;;;;;;;;4997300;28;58778;-74
2023/12/22 13:53:01;;;;;;;;;;;;;;;;;;5012000;28;60445;-74
2023/12/22 13:55:26;;;;;;;;;;;;;;;;;;4996415;28;59437;-73
2023/12/22 13:57:51;;;;;;;;;;;;;;;;;;4996969;28;59155;-75
2023/12/22 14:00:16;;;;;;;;;;;;;;;;;;5012295;28;62632;-76
2023/12/22 14:02:41;;;;;;;;;;;;;;;;;;4997787;28;59302;-75
2023/12/22 14:05:06;;;;;;;;;;;;;;;;;;4996922;28;60292;-76
2023/12/22 14:07:31;;;;;;;;;;;;;;;;;;4996161;28;59521;-75
2023/12/22 14:09:56;;;;;;;;;;;;;;;;;;4997137;28;58924;-76
2023/12/22 14:12:21;;;;;;;;;;;;;;;;;;4996810;28;60283;-74
2023/12/22 14:14:46;;;;;;;;;;;;;;;;;;5011920;28;60051;-76
2023/12/22 14:17:12;;;;;;;;;;;;;;;;;;4996978;28;58952;-74
2023/12/22 14:19:37;;;;;;;;;;;;;;;;;;4997048;28;59376;-74
2023/12/22 14:22:02;;;;;;;;;;;;;;;;;;4996238;28;58857;-76
2023/12/22 14:24:27;;;;;;;;;;;;;;;;;;5012924;28;59192;-75
2023/12/22 14:26:52;;;;;;;;;;;;;;;;;;4996969;28;59147;-75
2023/12/22 14:29:17;;;;;;;;;;;;;;;;;;4996416;28;58436;-75
2023/12/22 14:31:42;;;;;;;;;;;;;;;;;;4996710;28;61391;-75
2023/12/22 14:34:07;;;;;;;;;;;;;;;;;;4996064;28;58913;-75
2023/12/22 14:36:32;;;;;;;;;;;;;;;;;;4996570;28;59060;-75
2023/12/22 14:38:57;;;;;;;;;;;;;;;;;;4997207;28;60286;-75
2023/12/22 14:41:23;;;;;;;;;;;;;;;;;;4995650;28;59369;-74
2023/12/22 14:43:48;;;;;;;;;;;;;;;;;;4996395;28;58876;-75
2023/12/22 14:46:13;;;;;;;;;;;;;;;;;;4995920;28;61264;-74
2023/12/22 14:48:38;;;;;;;;;;;;;;;;;;4996270;28;58826;-74
2023/12/22 14:51:03;;;;;;;;;;;;;;;;;;4996763;28;60255;-74
2023/12/22 14:53:28;;;;;;;;;;;;;;;;;;4995501;28;59427;-77
2023/12/22 14:55:56;;;;;;;;;;;;;;;;;;4996008;28;58973;-78
2023/12/22 14:58:22;;;;;;;;;;;;;;;;;;4995908;28;61316;-77
2023/12/22 15:00:47;;;;;;;;;;;;;;;;;;4995271;28;59264;-75
2023/12/22 15:03:12;;;;;;;;;;;;;;;;;;4996133;28;58821;-76
2023/12/22 15:05:37;;;;;;;;;;;;;;;;;;4996560;28;61226;-79
2023/12/22 15:08:02;;;;;;;;;;;;;;;;;;4996056;28;58879;-76
2023/12/22 15:10:27;;;;;;;;;;;;;;;;;;4995986;28;60208;-80
2023/12/22 15:12:52;;;;;;;;;;;;;;;;;;4995191;28;59116;-75
2023/12/22 15:15:17;;;;;;;;;;;;;;;;;;4995778;28;58953;-78
2023/12/22 15:17:43;;;;;;;;;;;;;;;;;;4996229;28;60267;-76
2023/12/22 15:20:08;;;;;;;;;;;;;;;;;;4994876;28;59117;-76
2023/12/22 15:22:33;;;;;;;;;;;;;;;;;;4995442;28;58894;-75
2023/12/22 15:24:59;;;;;;;;;;;;;;;;;;4996174;28;59402;-76
2023/12/22 15:27:24;;;;;;;;;;;;;;;;;;4996120;28;59161;-75
2023/12/22 15:29:49;;;;;;;;;;;;;;;;;;4995241;28;60288;-75
2023/12/22 15:32:14;;;;;;;;;;;;;;;;;;4995510;28;58778;-75
2023/12/22 15:34:40;;;;;;;;;;;;;;;;;;5011250;28;58990;-75
2023/12/22 15:37:05;;;;;;;;;;;;;;;;;;4996029;28;60158;-75
2023/12/22 15:39:30;;;;;;;;;;;;;;;;;;4995304;28;59413;-75
2023/12/22 15:41:56;;;;;;;;;;;;;;;;;;4996010;28;58915;-75
2023/12/22 15:44:21;;;;;;;;;;;;;;;;;;4995909;28;60420;-76
2023/12/22 15:46:46;;;;;;;;;;;;;;;;;;4995531;28;58727;-75
2023/12/22 15:49:11;;;;;;;;;;;;;;;;;;5011760;28;58928;-75
2023/12/22 15:51:36;;;;;;;;;;;;;;;;;;4995183;28;58990;-75
2023/12/22 15:54:02;;;;;;;;;;;;;;;;;;4996208;28;58914;-75
2023/12/22 15:56:27;;;;;;;;;;;;;;;;;;4995635;28;60388;-75
2023/12/22 15:58:52;;;;;;;;;;;;;;;;;;4995034;28;58872;-75
2023/12/22 16:01:17;;;;;;;;;;;;;;;;;;4995735;28;58846;-75
2023/12/22 16:03:47;;;;;;;;;;;;;;;;;;4995871;28;60266;-75
2023/12/22 16:06:12;;;;;;;;;;;;;;;;;;4994819;28;58724;-76
2023/12/22 16:08:37;;;;;;;;;;;;;;;;;;4995594;28;58921;-75
2023/12/22 16:11:02;;;;;;;;;;;;;;;;;;4995691;28;58905;-76
2023/12/22 16:13:29;;;;;;;;;;;;;;;;;;5010671;28;58955;-75
2023/12/22 16:15:54;;;;;;;;;;;;;;;;;;5010488;28;61187;-75
2023/12/22 16:18:20;;;;;;;;;;;;;;;;;;4994647;28;59071;-75
2023/12/22 16:20:45;;;;;;;;;;;;;;;;;;4995397;28;58914;-75
2023/12/22 16:23:10;;;;;;;;;;;;;;;;;;4995395;28;60169;-75
2023/12/22 16:25:35;;;;;;;;;;;;;;;;;;4994455;28;59012;-76
2023/12/22 16:28:00;;;;;;;;;;;;;;;;;;4995247;28;58320;-76
2023/12/22 16:30:26;;;;;;;;;;;;;;;;;;4995075;28;60323;-75
2023/12/22 16:32:51;;;;;;;;;;;;;;;;;;4995049;28;59753;-73